Time;durP1;ratioP1;P1;durP2;ratioP2;P2;SDS_P1;SDS_P2;PMS_P1;PMS_P2;Temp;Humidity;BMP_temperature;BMP_pressure;BME280_temperature;BME280_humidity;BME280_pressure;Samples;Min_cycle;Max_cycle;Signal;HPM_P1;HPM_P2
2022/01/06 00:00:08;;;;;;;15.30;3.38;;;5.10;82.10;;;;;;5020002;28;20029;-90
2022/01/06 00:02:34;;;;;;;16.20;2.67;;;5.10;82.10;;;;;;5019853;28;20022;-90
2022/01/06 00:05:00;;;;;;;16.23;3.15;;;5.10;82.20;;;;;;5019075;28;20445;-90
2022/01/06 00:07:28;;;;;;;14.80;3.15;;;5.10;82.00;;;;;;5019562;28;20021;-90
2022/01/06 00:09:54;;;;;;;12.00;2.90;;;5.10;82.10;;;;;;5019833;28;20095;-90
2022/01/06 00:12:24;;;;;;;14.98;2.65;;;5.10;82.00;;;;;;5019923;28;20432;-90
2022/01/06 00:15:07;;;;;;;21.08;3.22;;;5.10;82.10;;;;;;5020536;28;20439;-90
2022/01/06 00:18:09;;;;;;;15.55;2.65;;;5.00;82.20;;;;;;5020430;28;20098;-90
2022/01/06 00:25:45;;;;;;;16.25;2.40;;;5.00;82.20;;;;;;5036854;28;20442;-89
2022/01/06 00:28:12;;;;;;;17.35;3.78;;;5.00;82.10;;;;;;5019780;28;20025;-90
2022/01/06 00:30:38;;;;;;;17.88;2.65;;;5.00;82.10;;;;;;5019719;28;20097;-90
2022/01/06 00:33:03;;;;;;;21.40;3.28;;;5.00;82.00;;;;;;5018998;28;20053;-90
2022/01/06 00:35:29;;;;;;;14.30;3.33;;;5.00;81.90;;;;;;5019386;28;20036;-90
2022/01/06 00:37:55;;;;;;;22.15;4.00;;;5.00;81.90;;;;;;5019065;28;20084;-90
2022/01/06 00:40:21;;;;;;;15.88;2.55;;;5.00;81.90;;;;;;5018967;28;20022;-90
2022/01/06 00:42:46;;;;;;;18.58;3.47;;;4.90;81.80;;;;;;5018861;28;20029;-90
2022/01/06 00:45:12;;;;;;;17.48;2.72;;;4.90;82.40;;;;;;5018589;28;20120;-90
2022/01/06 00:47:38;;;;;;;19.38;3.08;;;4.90;81.90;;;;;;5018756;28;20025;-90
2022/01/06 00:50:04;;;;;;;18.27;2.65;;;4.90;81.90;;;;;;5018248;28;20021;-90
2022/01/06 00:52:30;;;;;;;14.73;2.80;;;4.90;81.90;;;;;;5018229;28;20445;-91
2022/01/06 00:54:59;;;;;;;13.70;2.45;;;4.80;82.50;;;;;;5019011;28;20025;-90
2022/01/06 00:57:25;;;;;;;16.95;3.58;;;4.80;81.90;;;;;;5018022;28;20033;-90
2022/01/06 00:59:51;;;;;;;18.10;3.22;;;4.80;81.90;;;;;;5018281;28;20404;-90
2022/01/06 01:02:17;;;;;;;9.52;2.35;;;4.80;81.90;;;;;;5018010;28;20109;-89
2022/01/06 01:04:43;;;;;;;14.18;3.10;;;4.80;81.90;;;;;;5001640;28;20041;-90
2022/01/06 01:07:08;;;;;;;15.80;3.08;;;4.80;81.90;;;;;;5023187;28;20034;-89
2022/01/06 01:09:35;;;;;;;20.10;3.83;;;4.80;81.90;;;;;;5019996;28;20124;-90
2022/01/06 01:12:03;;;;;;;17.60;2.70;;;4.80;81.90;;;;;;5019353;28;20026;-89
2022/01/06 01:14:32;;;;;;;15.25;2.67;;;4.70;81.90;;;;;;5019825;28;20021;-89
2022/01/06 01:17:01;;;;;;;17.30;2.67;;;4.70;81.80;;;;;;5017997;28;20013;-90
2022/01/06 01:19:29;;;;;;;18.58;2.97;;;4.70;81.90;;;;;;5018037;28;20464;-90
2022/01/06 01:21:56;;;;;;;16.38;2.75;;;4.70;81.90;;;;;;5017927;28;20522;-90
2022/01/06 01:24:23;;;;;;;17.98;2.72;;;4.70;82.00;;;;;;5017952;28;20022;-89
2022/01/06 01:26:49;;;;;;;16.98;2.95;;;4.70;82.00;;;;;;5017469;28;20053;-90
2022/01/06 01:29:18;;;;;;;11.70;2.20;;;4.60;82.00;;;;;;5017530;28;20060;-90
2022/01/06 01:31:49;;;;;;;19.25;3.10;;;4.60;82.00;;;;;;5017566;28;20060;-90
2022/01/06 01:34:21;;;;;;;12.65;2.70;;;4.60;82.00;;;;;;5017725;28;20032;-90
2022/01/06 01:36:47;;;;;;;14.13;3.17;;;4.60;82.00;;;;;;5017084;28;20065;-90
2022/01/06 01:39:13;;;;;;;12.93;3.65;;;4.60;81.90;;;;;;5001398;28;20029;-90
2022/01/06 01:41:39;;;;;;;15.57;2.85;;;4.60;81.90;;;;;;5018017;28;20039;-90
2022/01/06 01:44:11;;;;;;;15.57;3.75;;;4.50;81.80;;;;;;5018679;28;20025;-90
2022/01/06 01:46:43;;;;;;;10.43;2.58;;;4.50;82.00;;;;;;5018018;28;20014;-91
2022/01/06 01:51:51;;;;;;;15.75;2.72;;;4.50;82.10;;;;;;5034880;28;20032;-90
2022/01/06 01:54:18;;;;;;;15.02;2.30;;;4.50;82.20;;;;;;5017414;28;20022;-90
2022/01/06 01:56:44;;;;;;;14.63;2.67;;;4.50;82.20;;;;;;5017147;28;20025;-90
2022/01/06 01:59:11;;;;;;;16.35;2.38;;;4.50;82.30;;;;;;5017077;28;20017;-91
2022/01/06 02:01:37;;;;;;;16.05;2.17;;;4.40;82.10;;;;;;5017074;28;20028;-90
2022/01/06 02:04:03;;;;;;;12.57;2.58;;;4.40;82.10;;;;;;5017169;28;20025;-90
2022/01/06 02:06:29;;;;;;;16.67;2.65;;;4.40;82.10;;;;;;5016910;28;20025;-90
2022/01/06 02:08:55;;;;;;;18.27;2.42;;;4.40;82.30;;;;;;5016841;28;20014;-91
2022/01/06 02:11:22;;;;;;;15.85;2.45;;;4.40;82.40;;;;;;5017003;28;20079;-90
2022/01/06 02:13:52;;;;;;;14.82;2.30;;;4.30;82.40;;;;;;5016708;28;20534;-90
2022/01/06 02:16:23;;;;;;;13.73;2.60;;;4.30;82.40;;;;;;5017216;28;20357;-91
2022/01/06 02:18:50;;;;;;;16.17;1.92;;;4.30;82.50;;;;;;5016746;28;20022;-90
2022/01/06 02:21:16;;;;;;;14.30;2.55;;;4.30;82.50;;;;;;5016648;28;20021;-90
2022/01/06 02:23:43;;;;;;;18.48;2.42;;;4.30;82.60;;;;;;5000616;28;20033;-90
2022/01/06 02:26:08;;;;;;;14.40;2.60;;;4.40;82.70;;;;;;4999985;28;20097;-90
2022/01/06 02:28:34;;;;;;;13.55;2.08;;;4.40;82.70;;;;;;5016082;28;20029;-90
2022/01/06 02:31:00;;;;;;;9.90;2.25;;;4.30;82.70;;;;;;5016385;28;20392;-90
2022/01/06 02:33:27;;;;;;;11.32;2.55;;;4.40;82.80;;;;;;5016511;28;20026;-90
2022/01/06 02:35:54;;;;;;;12.27;2.17;;;4.40;82.80;;;;;;5016444;28;20420;-90
2022/01/06 02:38:20;;;;;;;14.63;2.80;;;4.40;82.70;;;;;;5016613;28;20492;-91
2022/01/06 02:40:47;;;;;;;13.77;2.47;;;4.40;82.70;;;;;;5016327;28;20028;-90
2022/01/06 02:43:17;;;;;;;13.27;2.33;;;4.30;82.70;;;;;;5000055;28;20026;-90
2022/01/06 02:45:45;;;;;;;12.10;2.10;;;4.40;82.70;;;;;;5000895;28;20037;-90
2022/01/06 02:48:11;;;;;;;16.45;2.75;;;4.30;82.60;;;;;;5016325;28;20083;-91
2022/01/06 02:50:38;;;;;;;13.32;2.17;;;4.30;82.60;;;;;;5031819;28;20468;-90
2022/01/06 02:53:06;;;;;;;11.00;1.83;;;4.30;82.50;;;;;;5004079;28;20025;-90
2022/01/06 02:55:36;;;;;;;11.02;2.00;;;4.30;82.50;;;;;;5016375;28;20045;-90
2022/01/06 02:58:02;;;;;;;12.45;2.15;;;4.30;82.50;;;;;;5016322;28;20017;-90
2022/01/06 03:00:29;;;;;;;11.27;2.15;;;4.30;82.30;;;;;;5023087;28;20445;-91
2022/01/06 03:02:55;;;;;;;12.60;1.80;;;4.30;82.50;;;;;;5030875;28;20478;-90
2022/01/06 03:05:21;;;;;;;14.18;2.58;;;4.20;82.60;;;;;;5019853;28;20044;-90
2022/01/06 03:07:47;;;;;;;13.07;2.70;;;4.20;82.60;;;;;;5027344;28;20021;-90
2022/01/06 03:10:16;;;;;;;11.38;2.13;;;4.20;82.80;;;;;;5019113;28;20127;-90
2022/01/06 03:12:45;;;;;;;10.27;1.85;;;4.20;82.80;;;;;;5019914;28;20017;-90
2022/01/06 03:15:31;;;;;;;12.90;2.42;;;4.20;82.80;;;;;;5034056;28;20175;-89
2022/01/06 03:17:58;;;;;;;16.23;2.83;;;4.20;83.60;;;;;;5035939;28;20021;-89
2022/01/06 03:20:26;;;;;;;12.05;1.77;;;4.20;83.10;;;;;;5032495;28;20488;-89
2022/01/06 03:22:53;;;;;;;15.63;2.17;;;4.20;83.20;;;;;;5026397;28;20060;-90
2022/01/06 03:25:19;;;;;;;17.90;2.80;;;4.20;83.30;;;;;;5028437;28;20035;-90
2022/01/06 03:27:45;;;;;;;12.80;2.72;;;4.20;83.30;;;;;;5035964;28;20111;-90
2022/01/06 03:30:19;;;;;;;18.20;3.05;;;4.10;83.30;;;;;;5016739;28;20030;-90
2022/01/06 03:32:46;;;;;;;18.77;2.88;;;4.10;83.30;;;;;;5016208;28;20118;-90
2022/01/06 03:35:16;;;;;;;10.35;1.98;;;4.10;83.30;;;;;;5016136;28;20071;-90
2022/01/06 03:37:42;;;;;;;15.82;1.80;;;4.10;83.30;;;;;;5016038;28;20050;-90
2022/01/06 03:40:09;;;;;;;12.20;2.33;;;4.10;83.30;;;;;;5018500;28;20056;-90
2022/01/06 03:42:36;;;;;;;14.95;2.35;;;4.10;83.30;;;;;;5024475;28;20036;-91
2022/01/06 03:45:05;;;;;;;13.27;2.15;;;4.10;83.30;;;;;;5024827;28;20018;-90
2022/01/06 03:47:31;;;;;;;16.25;2.20;;;4.10;83.20;;;;;;5019369;28;20438;-90
2022/01/06 03:49:56;;;;;;;15.43;3.40;;;4.10;83.10;;;;;;5019612;28;20026;-90
2022/01/06 03:52:22;;;;;;;11.20;2.47;;;4.10;83.00;;;;;;5030452;28;20060;-90
2022/01/06 03:54:48;;;;;;;13.35;2.45;;;4.10;83.00;;;;;;5038982;28;20025;-90
2022/01/06 03:57:16;;;;;;;12.75;2.35;;;4.10;83.10;;;;;;5022769;28;20047;-90
2022/01/06 03:59:42;;;;;;;7.47;1.83;;;4.00;83.10;;;;;;5024040;28;20033;-90
2022/01/06 04:02:08;;;;;;;8.60;2.00;;;4.00;83.10;;;;;;5038982;28;20075;-90
2022/01/06 04:04:34;;;;;;;14.50;2.00;;;4.00;83.00;;;;;;5022998;28;20025;-90
2022/01/06 04:06:59;;;;;;;11.70;2.10;;;4.00;83.00;;;;;;5039452;28;20025;-90
2022/01/06 04:09:25;;;;;;;18.20;2.47;;;4.00;83.10;;;;;;5040311;28;20017;-90
2022/01/06 04:11:51;;;;;;;12.07;2.30;;;3.90;83.20;;;;;;5022832;28;20017;-90
2022/01/06 04:14:17;;;;;;;18.08;3.33;;;3.90;83.30;;;;;;5023098;28;20079;-90
2022/01/06 04:16:42;;;;;;;16.90;2.13;;;3.90;83.40;;;;;;5039776;28;20017;-90
2022/01/06 04:19:09;;;;;;;16.20;2.95;;;3.90;83.40;;;;;;5039372;28;20526;-90
2022/01/06 04:21:35;;;;;;;10.75;2.33;;;3.90;83.30;;;;;;5039454;28;20020;-90
2022/01/06 04:24:01;;;;;;;19.27;3.03;;;3.90;83.30;;;;;;5039519;28;20017;-90
2022/01/06 04:26:27;;;;;;;14.52;2.13;;;3.90;83.20;;;;;;5022649;28;20606;-90
2022/01/06 04:28:53;;;;;;;11.80;2.08;;;3.90;83.10;;;;;;5039108;28;20099;-90
2022/01/06 04:31:19;;;;;;;17.40;2.67;;;3.80;82.80;;;;;;5038827;28;20110;-90
2022/01/06 04:33:44;;;;;;;10.45;1.88;;;3.90;82.90;;;;;;5038700;28;20083;-89
2022/01/06 04:36:10;;;;;;;18.20;3.08;;;3.90;82.90;;;;;;5022015;28;20049;-90
2022/01/06 04:38:36;;;;;;;7.85;2.00;;;3.80;83.40;;;;;;5022220;28;20037;-89
2022/01/06 04:41:03;;;;;;;15.65;2.13;;;3.80;82.80;;;;;;5038480;28;20031;-90
2022/01/06 04:43:29;;;;;;;10.05;2.30;;;3.80;82.80;;;;;;5038706;28;20021;-90
2022/01/06 04:45:55;;;;;;;18.77;2.85;;;3.70;82.80;;;;;;5038380;28;20021;-91
2022/01/06 04:48:21;;;;;;;10.40;2.20;;;3.70;82.90;;;;;;5022128;28;20494;-90
2022/01/06 04:50:46;;;;;;;27.58;3.60;;;3.70;83.00;;;;;;5021015;28;20032;-90
2022/01/06 04:53:12;;;;;;;14.70;2.90;;;3.70;83.00;;;;;;5021554;28;20490;-90
2022/01/06 04:55:38;;;;;;;11.23;2.22;;;3.70;83.10;;;;;;5037997;28;20029;-90
2022/01/06 04:58:04;;;;;;;8.95;2.10;;;3.60;83.10;;;;;;5021469;28;20056;-90
2022/01/06 05:00:30;;;;;;;13.98;2.55;;;3.60;83.20;;;;;;5021698;28;20052;-90
2022/01/06 05:02:59;;;;;;;13.15;1.92;;;3.60;83.30;;;;;;5021649;28;20472;-90
2022/01/06 05:05:25;;;;;;;13.98;2.33;;;3.60;83.30;;;;;;5021093;28;20021;-90
2022/01/06 05:07:50;;;;;;;17.50;2.63;;;3.60;83.30;;;;;;5037869;28;20025;-90
2022/01/06 05:10:16;;;;;;;15.85;2.90;;;3.60;83.40;;;;;;5039084;28;20021;-90
2022/01/06 05:12:44;;;;;;;11.23;2.22;;;3.60;83.40;;;;;;5037703;28;20024;-90
2022/01/06 05:15:11;;;;;;;8.18;2.20;;;3.60;83.40;;;;;;5037547;28;20025;-89
2022/01/06 05:17:37;;;;;;;11.02;1.90;;;3.60;83.40;;;;;;5038205;28;20024;-89
2022/01/06 05:20:04;;;;;;;10.80;1.77;;;3.60;83.40;;;;;;5037432;28;20025;-89
2022/01/06 05:22:31;;;;;;;11.35;2.28;;;3.50;83.30;;;;;;5037775;28;20028;-90
2022/01/06 05:24:57;;;;;;;18.83;3.55;;;3.50;83.20;;;;;;5038115;28;20017;-89
2022/01/06 05:27:22;;;;;;;10.88;2.10;;;3.50;83.20;;;;;;5038288;28;20029;-89
2022/01/06 05:29:48;;;;;;;16.35;2.17;;;3.50;83.30;;;;;;5021000;28;20024;-89
2022/01/06 05:32:14;;;;;;;15.65;2.38;;;3.50;83.30;;;;;;5037130;28;20017;-89
2022/01/06 05:34:40;;;;;;;16.48;2.33;;;3.50;83.50;;;;;;5037553;28;20033;-90
2022/01/06 05:37:05;;;;;;;15.50;2.20;;;3.50;83.50;;;;;;5020769;28;20476;-90
2022/01/06 05:39:31;;;;;;;13.63;2.13;;;3.50;83.60;;;;;;5021318;28;20033;-90
2022/01/06 05:41:57;;;;;;;13.43;2.22;;;3.50;83.60;;;;;;5021299;28;20035;-90
2022/01/06 05:44:24;;;;;;;9.93;1.98;;;3.50;83.70;;;;;;5020456;28;20025;-90
2022/01/06 05:46:49;;;;;;;17.98;2.05;;;3.40;83.70;;;;;;5020718;28;20033;-90
2022/01/06 05:49:16;;;;;;;12.27;1.90;;;3.40;83.80;;;;;;5021136;28;20032;-90
2022/01/06 05:51:42;;;;;;;12.90;2.05;;;3.40;83.80;;;;;;5020789;28;20074;-90
2022/01/06 05:54:08;;;;;;;11.20;1.90;;;3.50;83.90;;;;;;5036939;28;20056;-90
2022/01/06 05:56:33;;;;;;;13.40;2.28;;;3.40;83.90;;;;;;5020692;28;20423;-90
2022/01/06 05:58:59;;;;;;;17.92;2.65;;;3.40;83.90;;;;;;5037248;28;20166;-90
2022/01/06 06:01:25;;;;;;;13.48;3.03;;;3.50;84.00;;;;;;5020725;28;20069;-90
2022/01/06 06:03:52;;;;;;;10.43;2.00;;;3.50;84.00;;;;;;5035687;28;20025;-90
2022/01/06 06:06:18;;;;;;;12.90;2.00;;;3.40;83.90;;;;;;5020789;28;20040;-90
2022/01/06 06:08:43;;;;;;;16.20;2.28;;;3.50;83.90;;;;;;5037681;28;20029;-90
2022/01/06 06:11:09;;;;;;;11.88;1.90;;;3.40;83.90;;;;;;5021018;28;20028;-90
2022/01/06 06:13:35;;;;;;;9.50;2.10;;;3.40;83.90;;;;;;5021077;28;20027;-90
2022/01/06 06:16:00;;;;;;;12.85;2.22;;;3.40;83.80;;;;;;5020806;28;20028;-90
2022/01/06 06:18:27;;;;;;;14.95;2.55;;;3.40;83.70;;;;;;5021112;28;20017;-90
2022/01/06 06:20:53;;;;;;;10.40;2.08;;;3.40;83.60;;;;;;5037384;28;20463;-90
2022/01/06 06:23:19;;;;;;;12.90;2.10;;;3.30;83.40;;;;;;5020600;28;20036;-90
2022/01/06 06:25:45;;;;;;;16.17;2.25;;;3.30;83.20;;;;;;5036718;28;20029;-90
2022/01/06 06:28:11;;;;;;;12.10;2.20;;;3.30;83.30;;;;;;5037014;28;20533;-90
2022/01/06 06:30:39;;;;;;;8.35;1.77;;;3.30;83.30;;;;;;5036988;28;20025;-90
2022/01/06 06:33:05;;;;;;;10.27;1.95;;;3.20;83.20;;;;;;5037263;28;20029;-89
2022/01/06 06:35:31;;;;;;;13.77;3.03;;;3.20;83.10;;;;;;5036902;28;20124;-90
2022/01/06 06:37:57;;;;;;;8.82;1.90;;;3.20;83.00;;;;;;5036467;28;20045;-91
2022/01/06 06:40:23;;;;;;;12.38;2.53;;;3.20;82.90;;;;;;5019921;28;20037;-90
2022/01/06 06:42:51;;;;;;;14.80;2.97;;;3.20;82.90;;;;;;5020427;28;20079;-90
2022/01/06 06:45:19;;;;;;;8.02;1.88;;;3.10;82.80;;;;;;5036638;28;20021;-90
2022/01/06 06:47:45;;;;;;;9.63;2.00;;;3.10;82.90;;;;;;5037062;28;20075;-91
2022/01/06 06:50:12;;;;;;;10.60;2.85;;;3.10;82.90;;;;;;5014166;28;20066;-90
2022/01/06 06:52:38;;;;;;;10.98;3.13;;;3.10;82.90;;;;;;5013672;28;20027;-90
2022/01/06 06:55:04;;;;;;;9.25;2.00;;;3.10;82.80;;;;;;5013297;28;20022;-89
2022/01/06 06:57:30;;;;;;;8.63;2.47;;;3.00;82.70;;;;;;4997384;28;20030;-89
2022/01/06 06:59:57;;;;;;;11.55;2.10;;;3.00;82.70;;;;;;5013267;28;20030;-89
2022/01/06 07:02:22;;;;;;;9.10;1.90;;;3.00;82.80;;;;;;5013565;28;20026;-89
2022/01/06 07:04:48;;;;;;;8.63;1.60;;;3.00;82.80;;;;;;5013904;28;20182;-90
2022/01/06 07:07:14;;;;;;;8.55;2.17;;;3.00;82.80;;;;;;5013943;28;20049;-91
2022/01/06 07:09:43;;;;;;;10.23;2.30;;;3.00;82.70;;;;;;5012946;28;20029;-90
2022/01/06 07:12:11;;;;;;;11.48;1.70;;;3.00;82.70;;;;;;5013209;28;20029;-90
2022/01/06 07:14:37;;;;;;;13.38;2.92;;;2.90;82.60;;;;;;5014169;28;20081;-89
2022/01/06 07:17:03;;;;;;;6.10;1.48;;;2.90;82.60;;;;;;5016779;28;20049;-90
2022/01/06 07:19:29;;;;;;;11.57;2.55;;;2.90;82.70;;;;;;5017010;28;20385;-90
2022/01/06 07:21:55;;;;;;;13.50;2.22;;;2.90;82.70;;;;;;5016776;28;20026;-90
2022/01/06 07:24:21;;;;;;;13.48;2.10;;;2.90;82.70;;;;;;5016695;28;20053;-89
2022/01/06 07:26:47;;;;;;;15.85;2.20;;;2.90;83.00;;;;;;5015867;28;20080;-91
2022/01/06 07:29:13;;;;;;;8.43;1.88;;;2.80;83.00;;;;;;5003360;28;20088;-91
2022/01/06 07:31:38;;;;;;;11.77;1.90;;;2.80;83.00;;;;;;5019518;28;20025;-92
2022/01/06 07:34:04;;;;;;;12.48;2.30;;;2.80;83.00;;;;;;5020037;28;20022;-90
2022/01/06 07:36:36;;;;;;;10.75;2.00;;;2.80;83.00;;;;;;5019822;28;20059;-93
2022/01/06 07:39:03;;;;;;;11.38;2.28;;;2.80;83.00;;;;;;5019724;28;20431;-89
2022/01/06 07:41:29;;;;;;;11.70;1.92;;;2.80;83.00;;;;;;5019458;28;20472;-89
2022/01/06 07:43:55;;;;;;;10.27;1.98;;;2.80;82.90;;;;;;5019700;28;20033;-89
2022/01/06 07:46:21;;;;;;;11.32;2.22;;;2.80;82.90;;;;;;5019360;28;20384;-89
2022/01/06 07:48:56;;;;;;;10.32;2.03;;;2.80;82.90;;;;;;5003398;28;20025;-89
2022/01/06 07:51:24;;;;;;;12.48;1.83;;;2.80;82.90;;;;;;5019154;28;20036;-89
2022/01/06 07:53:50;;;;;;;13.25;3.00;;;2.80;82.90;;;;;;5019862;28;20017;-89
2022/01/06 07:56:16;;;;;;;12.15;2.22;;;2.80;83.00;;;;;;5019379;28;20125;-90
2022/01/06 07:58:45;;;;;;;11.23;2.58;;;2.80;83.00;;;;;;5018903;28;20049;-89
2022/01/06 08:01:11;;;;;;;6.85;2.53;;;2.70;83.00;;;;;;5019359;28;20026;-90
2022/01/06 08:03:37;;;;;;;12.75;2.47;;;2.70;83.00;;;;;;5019328;28;20021;-90
2022/01/06 08:06:03;;;;;;;11.63;2.53;;;2.80;83.10;;;;;;5019059;28;20029;-91
2022/01/06 08:08:29;;;;;;;12.93;2.40;;;2.80;83.10;;;;;;5019159;28;20021;-91
2022/01/06 08:10:55;;;;;;;9.38;2.15;;;2.80;83.10;;;;;;5002922;28;20030;-90
2022/01/06 08:13:20;;;;;;;10.75;2.45;;;2.80;83.10;;;;;;5019684;28;20388;-90
2022/01/06 08:15:46;;;;;;;8.52;2.75;;;2.80;83.10;;;;;;5019163;28;20025;-90
2022/01/06 08:18:12;;;;;;;11.48;2.25;;;2.80;83.10;;;;;;5018935;28;20018;-90
2022/01/06 08:20:38;;;;;;;12.63;3.08;;;2.70;83.00;;;;;;5019342;28;20502;-90
2022/01/06 08:23:05;;;;;;;8.77;2.22;;;2.80;83.10;;;;;;5019188;28;20037;-90
2022/01/06 08:25:32;;;;;;;13.05;2.63;;;2.80;83.00;;;;;;5018809;28;20099;-90
2022/01/06 08:27:57;;;;;;;7.68;2.22;;;2.80;83.10;;;;;;5018112;28;20488;-89
2022/01/06 08:30:24;;;;;;;10.10;2.45;;;2.80;83.10;;;;;;5019885;28;20128;-91
2022/01/06 08:36:15;;;;;;;8.23;2.00;;;2.80;83.10;;;;;;5036501;28;20044;-92
2022/01/06 08:38:41;;;;;;;10.73;2.05;;;2.80;83.10;;;;;;5018659;28;20037;-90
2022/01/06 08:41:08;;;;;;;16.60;2.70;;;2.80;83.20;;;;;;5020227;28;20115;-90
2022/01/06 08:43:34;;;;;;;13.05;2.58;;;2.80;83.30;;;;;;5018650;28;20099;-91
2022/01/06 08:46:00;;;;;;;9.45;2.25;;;2.80;83.30;;;;;;5019163;28;20025;-91
2022/01/06 08:48:27;;;;;;;9.15;2.10;;;2.80;83.30;;;;;;5018759;28;20029;-93
2022/01/06 08:50:54;;;;;;;13.57;2.13;;;2.90;83.40;;;;;;5018328;28;20030;-90
2022/01/06 08:53:20;;;;;;;13.45;2.22;;;2.90;83.40;;;;;;5018723;28;20456;-91
2022/01/06 08:55:46;;;;;;;17.77;3.10;;;2.90;83.30;;;;;;5018513;28;20369;-92
2022/01/06 08:58:14;;;;;;;10.80;2.55;;;2.90;83.40;;;;;;5018338;28;20507;-91
2022/01/06 09:00:39;;;;;;;16.48;3.70;;;2.90;83.50;;;;;;5018864;28;20018;-91
2022/01/06 09:03:06;;;;;;;16.35;3.53;;;2.90;84.40;;;;;;5018124;28;20026;-91
2022/01/06 09:05:33;;;;;;;13.40;3.63;;;2.90;84.80;;;;;;5018315;28;20022;-90
2022/01/06 09:07:59;;;;;;;11.55;3.67;;;2.90;84.90;;;;;;5018212;28;20107;-91
2022/01/06 09:10:29;;;;;;;9.77;2.97;;;3.00;85.00;;;;;;5018856;28;20496;-91
2022/01/06 09:12:56;;;;;;;11.85;3.00;;;3.10;85.00;;;;;;5018792;28;20010;-91
2022/01/06 09:15:22;;;;;;;11.68;4.13;;;3.10;85.00;;;;;;5019560;28;20028;-91
2022/01/06 09:17:48;;;;;;;19.02;4.70;;;3.20;85.10;;;;;;5019395;28;20049;-93
2022/01/06 09:20:14;;;;;;;19.08;4.78;;;3.20;85.30;;;;;;5019090;28;20026;-94
2022/01/06 09:23:00;;;;;;;13.32;4.13;;;3.20;86.00;;;;;;5018223;28;20041;-93
2022/01/06 09:25:26;;;;;;;12.50;4.18;;;3.20;86.20;;;;;;5018529;28;20026;-93
2022/01/06 09:27:54;;;;;;;18.10;4.22;;;3.20;86.30;;;;;;5019295;28;20029;-91
2022/01/06 09:30:23;;;;;;;11.13;3.53;;;3.30;86.40;;;;;;5019270;28;20027;-92
2022/01/06 09:32:49;;;;;;;11.68;3.70;;;3.30;86.30;;;;;;5018911;28;20026;-93
2022/01/06 09:35:15;;;;;;;9.65;3.47;;;3.40;86.40;;;;;;5018352;28;20026;-93
2022/01/06 09:37:41;;;;;;;11.07;3.65;;;3.40;86.40;;;;;;5018206;28;20057;-93
2022/01/06 09:40:09;;;;;;;9.23;3.72;;;3.40;86.40;;;;;;5002245;28;20037;-92
2022/01/06 09:42:35;;;;;;;9.35;3.40;;;3.50;86.40;;;;;;5017985;28;20021;-92
2022/01/06 09:45:02;;;;;;;14.77;3.58;;;3.60;86.30;;;;;;5018477;28;20075;-93
2022/01/06 09:47:30;;;;;;;10.52;3.38;;;3.60;86.20;;;;;;5018206;28;20033;-91
2022/01/06 09:49:57;;;;;;;15.73;5.38;;;3.60;86.20;;;;;;5001996;28;20025;-91
2022/01/06 09:52:23;;;;;;;12.25;4.30;;;3.60;86.40;;;;;;5019376;28;20412;-92
2022/01/06 09:54:50;;;;;;;13.70;4.60;;;3.70;86.50;;;;;;5017727;28;20068;-92
2022/01/06 09:57:16;;;;;;;18.13;5.53;;;3.70;86.40;;;;;;5001882;28;20022;-91
2022/01/06 09:59:44;;;;;;;16.80;5.28;;;3.80;86.40;;;;;;5017427;28;20040;-92
2022/01/06 10:02:16;;;;;;;12.60;4.70;;;3.80;86.30;;;;;;5017820;28;20036;-92
2022/01/06 10:04:57;;;;;;;14.57;5.90;;;3.80;86.20;;;;;;5003430;28;20037;-91
2022/01/06 10:07:22;;;;;;;21.70;7.60;;;3.80;86.20;;;;;;5018313;28;20075;-92
2022/01/06 10:09:50;;;;;;;23.73;9.40;;;3.90;86.20;;;;;;5001850;28;20124;-91
2022/01/06 10:12:16;;;;;;;28.52;10.77;;;3.90;86.20;;;;;;5017839;28;20021;-92
2022/01/06 10:14:50;;;;;;;18.83;8.60;;;4.00;86.30;;;;;;5017725;28;20028;-91
2022/01/06 10:17:28;;;;;;;19.30;7.80;;;4.00;86.30;;;;;;5017861;28;20109;-92
2022/01/06 10:19:54;;;;;;;18.55;7.38;;;4.10;86.30;;;;;;5017545;28;20025;-91
2022/01/06 10:22:21;;;;;;;17.58;6.72;;;4.10;86.30;;;;;;5002230;28;20112;-92
2022/01/06 10:25:08;;;;;;;17.30;7.03;;;4.10;86.50;;;;;;5001511;28;20029;-91
2022/01/06 10:27:34;;;;;;;14.38;5.70;;;4.20;86.60;;;;;;5018030;28;20025;-91
2022/01/06 10:30:06;;;;;;;16.85;6.38;;;4.30;86.90;;;;;;5020393;28;20029;-91
2022/01/06 10:32:32;;;;;;;10.63;4.37;;;4.70;87.20;;;;;;5018307;28;20021;-90
2022/01/06 10:35:04;;;;;;;17.20;5.45;;;5.50;85.80;;;;;;5017652;28;20389;-91
2022/01/06 10:37:35;;;;;;;7.40;3.03;;;6.40;83.50;;;;;;5016967;28;20040;-90
2022/01/06 10:40:24;;;;;;;12.48;3.70;;;7.40;80.00;;;;;;5017725;28;20024;-89
2022/01/06 10:42:54;;;;;;;15.80;4.07;;;7.90;78.10;;;;;;5021377;28;20029;-87
2022/01/06 10:45:25;;;;;;;11.77;3.70;;;8.20;75.90;;;;;;5019994;28;20025;-88
2022/01/06 10:47:56;;;;;;;11.55;3.90;;;8.20;75.70;;;;;;5017073;28;20318;-89
2022/01/06 10:50:31;;;;;;;11.75;3.00;;;8.10;75.70;;;;;;5015564;28;20033;-89
2022/01/06 10:52:58;;;;;;;16.08;3.55;;;8.10;75.60;;;;;;5019124;28;20022;-88
2022/01/06 10:55:33;;;;;;;9.65;3.00;;;8.10;75.30;;;;;;5014401;28;20057;-89
2022/01/06 10:58:17;;;;;;;10.68;2.83;;;7.90;75.40;;;;;;5023558;28;20029;-88
2022/01/06 11:00:44;;;;;;;9.77;2.80;;;7.90;75.80;;;;;;5019739;28;20058;-89
2022/01/06 11:03:12;;;;;;;10.00;2.83;;;8.30;75.50;;;;;;5019614;28;20108;-89
2022/01/06 11:05:42;;;;;;;7.18;2.50;;;8.70;73.40;;;;;;5019228;28;20399;-89
2022/01/06 11:08:08;;;;;;;11.32;3.42;;;9.00;73.20;;;;;;5048149;28;20716;-88
2022/01/06 11:10:45;;;;;;;12.73;3.25;;;9.40;71.80;;;;;;5018845;28;20044;-89
2022/01/06 11:13:11;;;;;;;14.90;3.70;;;9.90;70.50;;;;;;5004795;28;20499;-89
2022/01/06 11:15:37;;;;;;;11.57;3.50;;;10.50;68.00;;;;;;5015047;28;20029;-89
2022/01/06 11:18:05;;;;;;;14.23;3.15;;;10.90;65.90;;;;;;5036408;28;20064;-88
2022/01/06 11:20:31;;;;;;;11.82;2.67;;;11.40;64.80;;;;;;5003339;28;20120;-91
2022/01/06 11:22:59;;;;;;;13.95;2.80;;;11.60;62.70;;;;;;5004252;28;20104;-88
2022/01/06 11:25:36;;;;;;;8.50;2.45;;;11.70;61.90;;;;;;5038674;28;20026;-89
2022/01/06 11:28:04;;;;;;;12.73;2.90;;;11.70;62.20;;;;;;5019984;28;20392;-89
2022/01/06 11:30:45;;;;;;;10.20;2.60;;;12.10;62.00;;;;;;5021326;28;20033;-90
2022/01/06 11:33:12;;;;;;;12.27;2.83;;;12.70;60.50;;;;;;5035832;28;20056;-90
2022/01/06 11:35:53;;;;;;;11.55;2.97;;;13.30;58.90;;;;;;5003404;28;20021;-89
2022/01/06 11:38:21;;;;;;;9.82;2.65;;;13.60;57.20;;;;;;5006331;28;20054;-89
2022/01/06 11:40:49;;;;;;;13.43;3.03;;;14.20;56.70;;;;;;5000494;28;20030;-91
2022/01/06 11:43:15;;;;;;;8.90;2.90;;;14.40;55.20;;;;;;4983905;28;20033;-89
2022/01/06 11:45:41;;;;;;;11.75;3.22;;;14.60;55.30;;;;;;4983437;28;20080;-89
2022/01/06 11:48:10;;;;;;;9.38;2.90;;;15.00;53.70;;;;;;4999619;28;20054;-89
2022/01/06 11:50:38;;;;;;;10.45;2.55;;;15.40;51.70;;;;;;4999117;28;20529;-89
2022/01/06 11:53:04;;;;;;;10.77;3.03;;;15.70;51.40;;;;;;5016741;28;20369;-89
2022/01/06 11:55:41;;;;;;;7.13;2.40;;;15.90;50.90;;;;;;5018978;28;20420;-89
2022/01/06 11:58:10;;;;;;;7.55;2.28;;;16.10;50.70;;;;;;4999615;28;20026;-91
2022/01/06 12:00:39;;;;;;;7.07;2.30;;;16.20;50.70;;;;;;4999632;28;20018;-93
2022/01/06 12:03:13;;;;;;;9.55;2.75;;;16.20;49.50;;;;;;4999685;28;20034;-90
2022/01/06 12:05:48;;;;;;;10.82;2.63;;;16.30;48.50;;;;;;4983097;28;20116;-90
2022/01/06 12:08:18;;;;;;;6.47;2.50;;;16.30;49.40;;;;;;4983164;28;20041;-89
2022/01/06 12:10:51;;;;;;;8.75;2.80;;;16.80;48.30;;;;;;4983603;28;20026;-90
2022/01/06 12:13:18;;;;;;;10.20;2.70;;;17.00;48.00;;;;;;4999266;28;20030;-90
2022/01/06 12:15:56;;;;;;;7.32;2.45;;;17.20;47.30;;;;;;4982484;28;20064;-90
2022/01/06 12:18:29;;;;;;;11.85;3.03;;;17.20;46.90;;;;;;4999069;28;20026;-90
2022/01/06 12:20:57;;;;;;;7.95;2.60;;;17.30;46.00;;;;;;4999212;28;20037;-90
2022/01/06 12:23:24;;;;;;;10.07;2.78;;;17.10;46.20;;;;;;4980630;28;20041;-92
2022/01/06 12:25:58;;;;;;;11.43;3.10;;;16.80;46.40;;;;;;4980217;28;20027;-90
2022/01/06 12:28:25;;;;;;;8.63;2.33;;;16.50;47.50;;;;;;4979775;28;20038;-91
2022/01/06 12:30:55;;;;;;;10.32;2.88;;;16.80;47.80;;;;;;4979369;28;20034;-90
2022/01/06 12:33:21;;;;;;;11.45;3.08;;;17.10;46.70;;;;;;4979607;28;20102;-90
2022/01/06 12:35:53;;;;;;;10.55;2.90;;;17.20;45.90;;;;;;4982597;28;20022;-90
2022/01/06 12:38:30;;;;;;;7.53;2.50;;;17.30;46.30;;;;;;5011131;28;20135;-88
2022/01/06 12:40:55;;;;;;;9.48;2.80;;;17.50;46.30;;;;;;5034560;28;20017;-88
2022/01/06 12:43:24;;;;;;;8.77;2.65;;;17.70;45.30;;;;;;5016909;28;20033;-88
2022/01/06 12:46:04;;;;;;;9.95;2.80;;;17.70;45.60;;;;;;5016680;28;20048;-88
2022/01/06 12:48:35;;;;;;;8.10;2.88;;;17.70;45.50;;;;;;5018189;28;20053;-89
2022/01/06 12:51:01;;;;;;;10.65;3.00;;;17.70;45.80;;;;;;5018617;28;20026;-90
2022/01/06 12:53:39;;;;;;;10.05;3.08;;;17.50;44.80;;;;;;5018514;28;20026;-90
2022/01/06 12:56:05;;;;;;;11.02;2.72;;;17.00;45.90;;;;;;5018115;28;20389;-90
2022/01/06 12:58:37;;;;;;;10.30;3.17;;;16.40;46.30;;;;;;5001596;28;20021;-90
2022/01/06 13:01:09;;;;;;;8.82;3.15;;;16.00;47.80;;;;;;5017850;28;20032;-91